sensor_id;sensor_type;location;lat;lon;timestamp;temperature;humidity
42663;DHT22;44330;51.360;6.686;2023-07-09T00:01:59;23.30;1.00
42663;DHT22;44330;51.360;6.686;2023-07-09T00:04:25;23.30;18.40
42663;DHT22;44330;51.360;6.686;2023-07-09T00:06:50;23.20;89.80
42663;DHT22;44330;51.360;6.686;2023-07-09T00:09:21;23.20;99.90
42663;DHT22;44330;51.360;6.686;2023-07-09T00:11:47;23.10;99.90
42663;DHT22;44330;51.360;6.686;2023-07-09T00:14:15;23.10;99.90
42663;DHT22;44330;51.360;6.686;2023-07-09T00:16:42;23.00;99.90
42663;DHT22;44330;51.360;6.686;2023-07-09T00:19:13;23.00;99.90
42663;DHT22;44330;51.360;6.686;2023-07-09T00:21:39;23.00;99.90
42663;DHT22;44330;51.360;6.686;2023-07-09T00:24:06;22.90;99.90
42663;DHT22;44330;51.360;6.686;2023-07-09T00:26:32;22.90;99.90
42663;DHT22;44330;51.360;6.686;2023-07-09T00:29:01;22.90;1.00
42663;DHT22;44330;51.360;6.686;2023-07-09T00:31:26;22.80;1.00
42663;DHT22;44330;51.360;6.686;2023-07-09T00:33:52;22.70;1.00
42663;DHT22;44330;51.360;6.686;2023-07-09T00:36:25;22.70;1.00
42663;DHT22;44330;51.360;6.686;2023-07-09T00:38:51;22.70;99.90
42663;DHT22;44330;51.360;6.686;2023-07-09T00:41:19;22.70;99.90
42663;DHT22;44330;51.360;6.686;2023-07-09T00:43:46;22.60;83.60
42663;DHT22;44330;51.360;6.686;2023-07-09T00:49:07;22.50;99.90
42663;DHT22;44330;51.360;6.686;2023-07-09T00:51:38;22.60;99.90
42663;DHT22;44330;51.360;6.686;2023-07-09T00:54:19;22.60;99.90
42663;DHT22;44330;51.360;6.686;2023-07-09T00:56:48;22.70;99.90
42663;DHT22;44330;51.360;6.686;2023-07-09T00:59:20;22.70;99.90
42663;DHT22;44330;51.360;6.686;2023-07-09T01:01:47;22.80;99.90
42663;DHT22;44330;51.360;6.686;2023-07-09T01:04:15;22.80;99.90
42663;DHT22;44330;51.360;6.686;2023-07-09T01:06:50;22.80;99.90
42663;DHT22;44330;51.360;6.686;2023-07-09T01:09:17;22.70;52.50
42663;DHT22;44330;51.360;6.686;2023-07-09T01:11:42;22.70;2.00
42663;DHT22;44330;51.360;6.686;2023-07-09T01:14:13;22.70;1.00
42663;DHT22;44330;51.360;6.686;2023-07-09T01:16:50;22.60;55.30
42663;DHT22;44330;51.360;6.686;2023-07-09T01:19:28;22.60;26.50
42663;DHT22;44330;51.360;6.686;2023-07-09T01:22:01;22.50;1.00
42663;DHT22;44330;51.360;6.686;2023-07-09T01:24:56;22.50;99.90
42663;DHT22;44330;51.360;6.686;2023-07-09T01:27:32;22.50;99.90
42663;DHT22;44330;51.360;6.686;2023-07-09T01:30:00;22.40;99.90
42663;DHT22;44330;51.360;6.686;2023-07-09T01:32:26;22.20;14.10
42663;DHT22;44330;51.360;6.686;2023-07-09T01:34:53;22.30;99.90
42663;DHT22;44330;51.360;6.686;2023-07-09T01:37:22;22.20;99.90
42663;DHT22;44330;51.360;6.686;2023-07-09T01:39:48;22.20;99.90
42663;DHT22;44330;51.360;6.686;2023-07-09T01:42:15;22.20;99.90
42663;DHT22;44330;51.360;6.686;2023-07-09T01:44:41;22.20;1.00
42663;DHT22;44330;51.360;6.686;2023-07-09T01:47:06;22.10;99.90
42663;DHT22;44330;51.360;6.686;2023-07-09T01:49:32;22.10;60.40
42663;DHT22;44330;51.360;6.686;2023-07-09T01:52:02;22.00;91.70
42663;DHT22;44330;51.360;6.686;2023-07-09T01:54:29;22.00;99.90
42663;DHT22;44330;51.360;6.686;2023-07-09T01:57:28;22.00;99.90
42663;DHT22;44330;51.360;6.686;2023-07-09T02:00:03;21.90;99.90
42663;DHT22;44330;51.360;6.686;2023-07-09T02:02:30;21.90;99.90
42663;DHT22;44330;51.360;6.686;2023-07-09T02:04:58;21.90;99.90
42663;DHT22;44330;51.360;6.686;2023-07-09T02:07:25;21.80;99.90
42663;DHT22;44330;51.360;6.686;2023-07-09T02:09:52;21.80;1.00
42663;DHT22;44330;51.360;6.686;2023-07-09T02:12:18;21.80;47.90
42663;DHT22;44330;51.360;6.686;2023-07-09T02:14:45;21.70;70.00
42663;DHT22;44330;51.360;6.686;2023-07-09T02:17:13;21.70;99.90
42663;DHT22;44330;51.360;6.686;2023-07-09T02:19:39;21.70;99.90
42663;DHT22;44330;51.360;6.686;2023-07-09T02:22:05;21.70;99.90
42663;DHT22;44330;51.360;6.686;2023-07-09T02:24:31;21.60;77.10
42663;DHT22;44330;51.360;6.686;2023-07-09T02:26:59;21.50;99.90
42663;DHT22;44330;51.360;6.686;2023-07-09T02:29:27;21.60;1.00
42663;DHT22;44330;51.360;6.686;2023-07-09T02:31:55;21.50;99.90
42663;DHT22;44330;51.360;6.686;2023-07-09T02:34:21;21.50;99.90
42663;DHT22;44330;51.360;6.686;2023-07-09T02:36:54;21.50;99.90
42663;DHT22;44330;51.360;6.686;2023-07-09T02:39:21;21.40;99.90
42663;DHT22;44330;51.360;6.686;2023-07-09T02:41:47;21.50;99.90
42663;DHT22;44330;51.360;6.686;2023-07-09T02:44:13;21.40;99.90
42663;DHT22;44330;51.360;6.686;2023-07-09T02:46:39;21.40;1.00
42663;DHT22;44330;51.360;6.686;2023-07-09T02:49:05;21.50;99.90
42663;DHT22;44330;51.360;6.686;2023-07-09T02:51:31;21.30;99.90
42663;DHT22;44330;51.360;6.686;2023-07-09T02:54:00;21.30;1.00
42663;DHT22;44330;51.360;6.686;2023-07-09T02:56:26;21.30;99.90
42663;DHT22;44330;51.360;6.686;2023-07-09T02:58:52;21.20;97.60
42663;DHT22;44330;51.360;6.686;2023-07-09T03:01:18;21.30;99.90
42663;DHT22;44330;51.360;6.686;2023-07-09T03:03:46;21.20;99.90
42663;DHT22;44330;51.360;6.686;2023-07-09T03:06:12;21.20;99.90
42663;DHT22;44330;51.360;6.686;2023-07-09T03:08:37;21.20;1.00
42663;DHT22;44330;51.360;6.686;2023-07-09T03:11:13;21.20;1.00
42663;DHT22;44330;51.360;6.686;2023-07-09T03:13:39;21.10;90.50
42663;DHT22;44330;51.360;6.686;2023-07-09T03:16:05;21.10;99.90
42663;DHT22;44330;51.360;6.686;2023-07-09T03:18:31;21.10;99.90
42663;DHT22;44330;51.360;6.686;2023-07-09T03:20:57;21.10;99.90
42663;DHT22;44330;51.360;6.686;2023-07-09T03:23:23;21.10;99.90
42663;DHT22;44330;51.360;6.686;2023-07-09T03:25:49;21.10;75.20
42663;DHT22;44330;51.360;6.686;2023-07-09T03:28:14;21.10;86.10
42663;DHT22;44330;51.360;6.686;2023-07-09T03:30:46;21.00;99.90
42663;DHT22;44330;51.360;6.686;2023-07-09T03:33:13;21.00;99.90
42663;DHT22;44330;51.360;6.686;2023-07-09T03:35:39;21.00;99.90
42663;DHT22;44330;51.360;6.686;2023-07-09T03:38:05;21.00;99.90
42663;DHT22;44330;51.360;6.686;2023-07-09T03:40:31;21.00;99.90
42663;DHT22;44330;51.360;6.686;2023-07-09T03:42:57;20.90;99.90
42663;DHT22;44330;51.360;6.686;2023-07-09T03:45:23;21.00;99.90
42663;DHT22;44330;51.360;6.686;2023-07-09T03:47:48;21.00;99.90
42663;DHT22;44330;51.360;6.686;2023-07-09T03:50:16;21.00;99.90
42663;DHT22;44330;51.360;6.686;2023-07-09T03:52:42;20.90;99.90
42663;DHT22;44330;51.360;6.686;2023-07-09T03:55:08;21.00;99.90
42663;DHT22;44330;51.360;6.686;2023-07-09T03:57:34;20.90;99.90
42663;DHT22;44330;51.360;6.686;2023-07-09T04:00:01;20.90;99.90
42663;DHT22;44330;51.360;6.686;2023-07-09T04:02:27;20.90;99.90
42663;DHT22;44330;51.360;6.686;2023-07-09T04:04:53;20.90;99.90
42663;DHT22;44330;51.360;6.686;2023-07-09T04:07:19;20.90;99.90
42663;DHT22;44330;51.360;6.686;2023-07-09T04:09:44;20.90;99.90
42663;DHT22;44330;51.360;6.686;2023-07-09T04:12:10;20.90;99.90
42663;DHT22;44330;51.360;6.686;2023-07-09T04:14:36;20.90;99.90
42663;DHT22;44330;51.360;6.686;2023-07-09T04:17:02;20.90;99.90
42663;DHT22;44330;51.360;6.686;2023-07-09T04:19:28;20.90;99.90
42663;DHT22;44330;51.360;6.686;2023-07-09T04:21:54;20.90;99.90
42663;DHT22;44330;51.360;6.686;2023-07-09T04:24:20;20.90;99.90
42663;DHT22;44330;51.360;6.686;2023-07-09T04:26:46;21.00;99.90
42663;DHT22;44330;51.360;6.686;2023-07-09T04:29:13;21.00;1.00
42663;DHT22;44330;51.360;6.686;2023-07-09T04:31:40;21.00;1.00
42663;DHT22;44330;51.360;6.686;2023-07-09T04:34:06;21.00;1.00
42663;DHT22;44330;51.360;6.686;2023-07-09T04:36:32;21.00;1.00
42663;DHT22;44330;51.360;6.686;2023-07-09T04:38:57;21.10;1.00
42663;DHT22;44330;51.360;6.686;2023-07-09T04:41:23;21.10;1.00
42663;DHT22;44330;51.360;6.686;2023-07-09T04:43:49;21.20;1.00
42663;DHT22;44330;51.360;6.686;2023-07-09T04:46:15;21.20;1.00
42663;DHT22;44330;51.360;6.686;2023-07-09T04:48:41;21.30;1.00
42663;DHT22;44330;51.360;6.686;2023-07-09T04:51:06;21.30;1.00
42663;DHT22;44330;51.360;6.686;2023-07-09T04:53:32;21.50;1.00
42663;DHT22;44330;51.360;6.686;2023-07-09T04:55:58;21.40;1.00
42663;DHT22;44330;51.360;6.686;2023-07-09T04:58:23;21.50;1.00
42663;DHT22;44330;51.360;6.686;2023-07-09T05:00:49;21.60;1.00
42663;DHT22;44330;51.360;6.686;2023-07-09T05:03:19;21.70;1.00
42663;DHT22;44330;51.360;6.686;2023-07-09T05:05:46;21.70;1.00
42663;DHT22;44330;51.360;6.686;2023-07-09T05:08:13;21.80;1.00
42663;DHT22;44330;51.360;6.686;2023-07-09T05:10:48;21.90;99.90
42663;DHT22;44330;51.360;6.686;2023-07-09T05:13:15;22.00;99.90
42663;DHT22;44330;51.360;6.686;2023-07-09T05:15:42;22.10;99.90
42663;DHT22;44330;51.360;6.686;2023-07-09T05:18:08;22.20;99.90
42663;DHT22;44330;51.360;6.686;2023-07-09T05:20:34;22.30;99.90
42663;DHT22;44330;51.360;6.686;2023-07-09T05:23:00;22.40;99.90
42663;DHT22;44330;51.360;6.686;2023-07-09T05:25:25;22.50;99.90
42663;DHT22;44330;51.360;6.686;2023-07-09T05:27:51;22.70;99.90
42663;DHT22;44330;51.360;6.686;2023-07-09T05:30:17;22.80;1.00
42663;DHT22;44330;51.360;6.686;2023-07-09T05:32:43;23.00;89.10
42663;DHT22;44330;51.360;6.686;2023-07-09T05:35:09;23.10;99.90
42663;DHT22;44330;51.360;6.686;2023-07-09T05:37:36;23.20;40.50
42663;DHT22;44330;51.360;6.686;2023-07-09T05:40:02;23.30;99.90
42663;DHT22;44330;51.360;6.686;2023-07-09T05:42:30;23.40;99.90
42663;DHT22;44330;51.360;6.686;2023-07-09T05:44:56;23.50;99.90
42663;DHT22;44330;51.360;6.686;2023-07-09T05:47:24;23.50;99.90
42663;DHT22;44330;51.360;6.686;2023-07-09T05:49:50;23.80;99.90
42663;DHT22;44330;51.360;6.686;2023-07-09T05:52:20;23.80;1.00
42663;DHT22;44330;51.360;6.686;2023-07-09T05:54:48;23.90;99.90
42663;DHT22;44330;51.360;6.686;2023-07-09T05:57:14;24.00;99.90
42663;DHT22;44330;51.360;6.686;2023-07-09T05:59:40;24.20;71.80
42663;DHT22;44330;51.360;6.686;2023-07-09T06:02:10;24.20;99.90
42663;DHT22;44330;51.360;6.686;2023-07-09T06:04:36;24.30;1.00
42663;DHT22;44330;51.360;6.686;2023-07-09T06:07:02;24.40;99.90
42663;DHT22;44330;51.360;6.686;2023-07-09T06:09:30;24.60;99.90
42663;DHT22;44330;51.360;6.686;2023-07-09T06:11:56;24.70;99.90
42663;DHT22;44330;51.360;6.686;2023-07-09T06:14:21;24.80;99.90
42663;DHT22;44330;51.360;6.686;2023-07-09T06:16:47;25.00;99.90
42663;DHT22;44330;51.360;6.686;2023-07-09T06:19:12;25.00;99.90
42663;DHT22;44330;51.360;6.686;2023-07-09T06:21:39;25.10;99.90
42663;DHT22;44330;51.360;6.686;2023-07-09T06:24:06;25.20;99.90
42663;DHT22;44330;51.360;6.686;2023-07-09T06:26:32;25.40;99.90
42663;DHT22;44330;51.360;6.686;2023-07-09T06:28:58;25.50;99.90
42663;DHT22;44330;51.360;6.686;2023-07-09T06:31:25;25.70;86.80
42663;DHT22;44330;51.360;6.686;2023-07-09T06:33:51;25.90;41.60
42663;DHT22;44330;51.360;6.686;2023-07-09T06:36:18;26.00;25.80
42663;DHT22;44330;51.360;6.686;2023-07-09T06:38:44;26.10;5.50
42663;DHT22;44330;51.360;6.686;2023-07-09T06:41:10;26.30;19.80
42663;DHT22;44330;51.360;6.686;2023-07-09T06:43:36;26.40;3.70
42663;DHT22;44330;51.360;6.686;2023-07-09T06:46:06;26.60;1.00
42663;DHT22;44330;51.360;6.686;2023-07-09T06:48:32;26.80;1.00
42663;DHT22;44330;51.360;6.686;2023-07-09T06:50:59;26.90;1.00
42663;DHT22;44330;51.360;6.686;2023-07-09T06:53:25;27.10;1.00
42663;DHT22;44330;51.360;6.686;2023-07-09T06:55:55;27.20;99.90
42663;DHT22;44330;51.360;6.686;2023-07-09T06:58:24;27.30;99.90
42663;DHT22;44330;51.360;6.686;2023-07-09T07:00:51;27.40;99.90
42663;DHT22;44330;51.360;6.686;2023-07-09T07:03:17;27.60;99.90
42663;DHT22;44330;51.360;6.686;2023-07-09T07:05:47;27.80;99.90
42663;DHT22;44330;51.360;6.686;2023-07-09T07:08:16;27.90;99.90
42663;DHT22;44330;51.360;6.686;2023-07-09T07:10:42;28.00;99.90
42663;DHT22;44330;51.360;6.686;2023-07-09T07:13:08;28.30;99.90
42663;DHT22;44330;51.360;6.686;2023-07-09T07:15:34;28.40;99.90
42663;DHT22;44330;51.360;6.686;2023-07-09T07:17:59;28.50;99.90
42663;DHT22;44330;51.360;6.686;2023-07-09T07:20:25;28.60;99.90
42663;DHT22;44330;51.360;6.686;2023-07-09T07:22:50;28.90;99.90
42663;DHT22;44330;51.360;6.686;2023-07-09T07:25:16;29.00;99.90
42663;DHT22;44330;51.360;6.686;2023-07-09T07:27:42;29.30;99.90
42663;DHT22;44330;51.360;6.686;2023-07-09T07:30:08;29.40;99.90
42663;DHT22;44330;51.360;6.686;2023-07-09T07:32:38;29.60;99.90
42663;DHT22;44330;51.360;6.686;2023-07-09T07:35:07;29.70;99.90
42663;DHT22;44330;51.360;6.686;2023-07-09T07:37:33;29.80;99.90
42663;DHT22;44330;51.360;6.686;2023-07-09T07:39:58;29.90;99.90
42663;DHT22;44330;51.360;6.686;2023-07-09T07:42:24;30.00;99.90
42663;DHT22;44330;51.360;6.686;2023-07-09T07:44:50;30.10;99.90
42663;DHT22;44330;51.360;6.686;2023-07-09T07:47:16;30.30;99.90
42663;DHT22;44330;51.360;6.686;2023-07-09T07:49:41;30.50;99.90
42663;DHT22;44330;51.360;6.686;2023-07-09T07:52:07;30.60;99.90
42663;DHT22;44330;51.360;6.686;2023-07-09T07:54:33;30.70;99.90
42663;DHT22;44330;51.360;6.686;2023-07-09T07:56:58;30.80;99.90
42663;DHT22;44330;51.360;6.686;2023-07-09T07:59:24;31.00;99.90
42663;DHT22;44330;51.360;6.686;2023-07-09T08:01:50;31.10;99.90
42663;DHT22;44330;51.360;6.686;2023-07-09T08:04:16;31.30;99.90
42663;DHT22;44330;51.360;6.686;2023-07-09T08:06:41;31.50;99.90
42663;DHT22;44330;51.360;6.686;2023-07-09T08:09:07;31.70;99.90
42663;DHT22;44330;51.360;6.686;2023-07-09T08:11:33;31.90;99.90
42663;DHT22;44330;51.360;6.686;2023-07-09T08:13:59;31.90;99.90
42663;DHT22;44330;51.360;6.686;2023-07-09T08:16:24;32.10;99.90
42663;DHT22;44330;51.360;6.686;2023-07-09T08:18:50;32.20;99.90
42663;DHT22;44330;51.360;6.686;2023-07-09T08:21:17;32.30;99.90
42663;DHT22;44330;51.360;6.686;2023-07-09T08:23:43;32.60;99.90
42663;DHT22;44330;51.360;6.686;2023-07-09T08:26:09;32.70;99.90
42663;DHT22;44330;51.360;6.686;2023-07-09T08:28:35;32.80;99.90
42663;DHT22;44330;51.360;6.686;2023-07-09T08:31:01;33.00;99.90
42663;DHT22;44330;51.360;6.686;2023-07-09T08:33:27;33.00;99.90
42663;DHT22;44330;51.360;6.686;2023-07-09T08:35:53;33.30;99.90
42663;DHT22;44330;51.360;6.686;2023-07-09T08:38:20;33.50;99.90
42663;DHT22;44330;51.360;6.686;2023-07-09T08:44:39;34.00;99.90
42663;DHT22;44330;51.360;6.686;2023-07-09T08:49:21;34.40;99.90
42663;DHT22;44330;51.360;6.686;2023-07-09T08:51:49;34.50;99.90
42663;DHT22;44330;51.360;6.686;2023-07-09T08:54:31;34.60;99.90
42663;DHT22;44330;51.360;6.686;2023-07-09T08:57:10;34.70;99.90
42663;DHT22;44330;51.360;6.686;2023-07-09T08:59:41;34.90;99.90
42663;DHT22;44330;51.360;6.686;2023-07-09T09:02:16;35.00;99.90
42663;DHT22;44330;51.360;6.686;2023-07-09T09:04:47;35.00;99.90
42663;DHT22;44330;51.360;6.686;2023-07-09T09:07:28;35.10;99.90
42663;DHT22;44330;51.360;6.686;2023-07-09T09:10:02;35.10;99.90
42663;DHT22;44330;51.360;6.686;2023-07-09T09:12:37;35.30;99.90
42663;DHT22;44330;51.360;6.686;2023-07-09T09:15:17;35.40;99.90
42663;DHT22;44330;51.360;6.686;2023-07-09T09:17:43;35.60;99.90
42663;DHT22;44330;51.360;6.686;2023-07-09T09:20:15;35.80;99.90
42663;DHT22;44330;51.360;6.686;2023-07-09T09:22:56;36.10;99.90
42663;DHT22;44330;51.360;6.686;2023-07-09T09:25:27;36.30;99.90
42663;DHT22;44330;51.360;6.686;2023-07-09T09:27:54;36.50;99.90
42663;DHT22;44330;51.360;6.686;2023-07-09T09:30:29;36.60;99.90
42663;DHT22;44330;51.360;6.686;2023-07-09T09:32:59;36.70;99.90
42663;DHT22;44330;51.360;6.686;2023-07-09T09:35:31;37.00;99.90
42663;DHT22;44330;51.360;6.686;2023-07-09T09:37:58;37.10;99.90
42663;DHT22;44330;51.360;6.686;2023-07-09T09:40:26;37.00;99.90
42663;DHT22;44330;51.360;6.686;2023-07-09T09:42:54;37.10;99.90
42663;DHT22;44330;51.360;6.686;2023-07-09T09:45:25;37.20;99.90
42663;DHT22;44330;51.360;6.686;2023-07-09T09:47:51;37.10;99.90
42663;DHT22;44330;51.360;6.686;2023-07-09T09:50:19;37.30;99.90
42663;DHT22;44330;51.360;6.686;2023-07-09T09:52:48;37.50;99.90
42663;DHT22;44330;51.360;6.686;2023-07-09T09:55:20;37.70;99.90
42663;DHT22;44330;51.360;6.686;2023-07-09T09:57:52;37.90;99.90
42663;DHT22;44330;51.360;6.686;2023-07-09T10:00:22;37.90;99.90
42663;DHT22;44330;51.360;6.686;2023-07-09T10:02:48;38.00;99.90
42663;DHT22;44330;51.360;6.686;2023-07-09T10:05:15;38.10;99.90
42663;DHT22;44330;51.360;6.686;2023-07-09T10:07:56;38.20;99.90
42663;DHT22;44330;51.360;6.686;2023-07-09T10:10:28;38.20;99.90
42663;DHT22;44330;51.360;6.686;2023-07-09T10:13:10;38.30;99.90
42663;DHT22;44330;51.360;6.686;2023-07-09T10:16:03;38.30;99.90
42663;DHT22;44330;51.360;6.686;2023-07-09T10:21:34;38.50;99.90
42663;DHT22;44330;51.360;6.686;2023-07-09T10:26:58;38.80;99.90
42663;DHT22;44330;51.360;6.686;2023-07-09T10:35:32;39.10;98.50
42663;DHT22;44330;51.360;6.686;2023-07-09T10:41:06;39.30;98.10
42663;DHT22;44330;51.360;6.686;2023-07-09T10:43:44;39.40;97.10
42663;DHT22;44330;51.360;6.686;2023-07-09T10:46:14;39.50;96.50
42663;DHT22;44330;51.360;6.686;2023-07-09T10:48:46;39.60;95.90
42663;DHT22;44330;51.360;6.686;2023-07-09T10:54:29;39.80;94.80
42663;DHT22;44330;51.360;6.686;2023-07-09T10:57:17;39.80;93.40
42663;DHT22;44330;51.360;6.686;2023-07-09T10:59:47;39.70;93.20
42663;DHT22;44330;51.360;6.686;2023-07-09T11:02:29;39.80;93.10
42663;DHT22;44330;51.360;6.686;2023-07-09T11:04:56;40.00;92.80
42663;DHT22;44330;51.360;6.686;2023-07-09T11:09:53;40.00;92.30
42663;DHT22;44330;51.360;6.686;2023-07-09T11:12:33;40.20;91.30
42663;DHT22;44330;51.360;6.686;2023-07-09T11:15:04;40.30;91.90
42663;DHT22;44330;51.360;6.686;2023-07-09T11:17:32;40.40;89.90
42663;DHT22;44330;51.360;6.686;2023-07-09T11:20:00;40.40;89.80
42663;DHT22;44330;51.360;6.686;2023-07-09T11:22:39;40.40;91.10
42663;DHT22;44330;51.360;6.686;2023-07-09T11:25:13;40.60;89.30
42663;DHT22;44330;51.360;6.686;2023-07-09T11:28:03;40.60;87.20
42663;DHT22;44330;51.360;6.686;2023-07-09T11:30:29;40.60;87.20
42663;DHT22;44330;51.360;6.686;2023-07-09T11:33:04;40.60;87.20
42663;DHT22;44330;51.360;6.686;2023-07-09T11:35:50;40.60;86.00
42663;DHT22;44330;51.360;6.686;2023-07-09T11:38:21;40.60;86.60
42663;DHT22;44330;51.360;6.686;2023-07-09T11:40:52;40.60;85.60
42663;DHT22;44330;51.360;6.686;2023-07-09T11:43:32;40.60;84.60
42663;DHT22;44330;51.360;6.686;2023-07-09T11:46:05;40.50;84.50
42663;DHT22;44330;51.360;6.686;2023-07-09T11:48:33;40.50;84.70
42663;DHT22;44330;51.360;6.686;2023-07-09T11:51:06;40.40;84.00
42663;DHT22;44330;51.360;6.686;2023-07-09T11:54:12;40.40;86.50
42663;DHT22;44330;51.360;6.686;2023-07-09T11:56:39;40.40;82.60
42663;DHT22;44330;51.360;6.686;2023-07-09T11:59:05;40.40;82.20
42663;DHT22;44330;51.360;6.686;2023-07-09T12:01:38;40.40;81.80
42663;DHT22;44330;51.360;6.686;2023-07-09T12:04:15;40.30;81.30
42663;DHT22;44330;51.360;6.686;2023-07-09T12:06:41;40.10;82.40
42663;DHT22;44330;51.360;6.686;2023-07-09T12:09:16;40.10;81.50
42663;DHT22;44330;51.360;6.686;2023-07-09T12:11:48;40.00;81.30
42663;DHT22;44330;51.360;6.686;2023-07-09T12:14:23;40.00;82.30
42663;DHT22;44330;51.360;6.686;2023-07-09T12:16:51;40.00;81.90
42663;DHT22;44330;51.360;6.686;2023-07-09T12:19:23;40.00;82.20
42663;DHT22;44330;51.360;6.686;2023-07-09T12:21:52;39.90;81.00
42663;DHT22;44330;51.360;6.686;2023-07-09T12:24:23;39.80;80.50
42663;DHT22;44330;51.360;6.686;2023-07-09T12:26:53;39.60;81.70
42663;DHT22;44330;51.360;6.686;2023-07-09T12:29:23;39.60;81.50
42663;DHT22;44330;51.360;6.686;2023-07-09T12:31:51;39.60;81.60
42663;DHT22;44330;51.360;6.686;2023-07-09T12:34:17;39.60;80.80
42663;DHT22;44330;51.360;6.686;2023-07-09T12:36:49;39.50;80.10
42663;DHT22;44330;51.360;6.686;2023-07-09T12:39:21;39.40;81.00
42663;DHT22;44330;51.360;6.686;2023-07-09T12:42:14;39.40;85.00
42663;DHT22;44330;51.360;6.686;2023-07-09T12:44:36;39.40;82.20
42663;DHT22;44330;51.360;6.686;2023-07-09T12:47:02;39.30;82.50
42663;DHT22;44330;51.360;6.686;2023-07-09T12:49:44;39.10;79.80
42663;DHT22;44330;51.360;6.686;2023-07-09T12:52:23;38.90;82.20
42663;DHT22;44330;51.360;6.686;2023-07-09T12:54:59;38.70;84.80
42663;DHT22;44330;51.360;6.686;2023-07-09T12:57:26;38.50;84.30
42663;DHT22;44330;51.360;6.686;2023-07-09T12:59:54;38.40;82.40
42663;DHT22;44330;51.360;6.686;2023-07-09T13:02:27;38.20;83.30
42663;DHT22;44330;51.360;6.686;2023-07-09T13:05:15;38.20;84.90
42663;DHT22;44330;51.360;6.686;2023-07-09T13:07:49;38.10;82.20
42663;DHT22;44330;51.360;6.686;2023-07-09T13:12:57;37.90;87.20
42663;DHT22;44330;51.360;6.686;2023-07-09T13:15:29;37.80;87.40
42663;DHT22;44330;51.360;6.686;2023-07-09T13:18:04;37.70;87.00
42663;DHT22;44330;51.360;6.686;2023-07-09T13:21:16;37.60;87.80
42663;DHT22;44330;51.360;6.686;2023-07-09T13:27:37;34.20;94.90
42663;DHT22;44330;51.360;6.686;2023-07-09T13:30:14;31.70;99.90
42663;DHT22;44330;51.360;6.686;2023-07-09T13:36:34;30.30;99.90
42663;DHT22;44330;51.360;6.686;2023-07-09T13:39:00;29.90;1.00
42663;DHT22;44330;51.360;6.686;2023-07-09T13:41:30;29.70;1.00
42663;DHT22;44330;51.360;6.686;2023-07-09T13:43:58;29.50;3.60
42663;DHT22;44330;51.360;6.686;2023-07-09T13:46:32;29.30;1.00
42663;DHT22;44330;51.360;6.686;2023-07-09T13:49:00;29.20;99.90
42663;DHT22;44330;51.360;6.686;2023-07-09T13:51:28;29.20;99.90
42663;DHT22;44330;51.360;6.686;2023-07-09T13:53:55;29.00;99.90
42663;DHT22;44330;51.360;6.686;2023-07-09T13:56:21;28.90;6.10
42663;DHT22;44330;51.360;6.686;2023-07-09T13:58:47;28.80;99.90
42663;DHT22;44330;51.360;6.686;2023-07-09T14:01:18;28.90;99.90
42663;DHT22;44330;51.360;6.686;2023-07-09T14:03:44;28.80;99.90
42663;DHT22;44330;51.360;6.686;2023-07-09T14:06:13;28.70;99.90
42663;DHT22;44330;51.360;6.686;2023-07-09T14:08:39;28.50;99.90
42663;DHT22;44330;51.360;6.686;2023-07-09T14:11:13;28.30;99.90
42663;DHT22;44330;51.360;6.686;2023-07-09T14:13:39;28.00;99.90
42663;DHT22;44330;51.360;6.686;2023-07-09T14:16:05;27.90;99.90
42663;DHT22;44330;51.360;6.686;2023-07-09T14:18:31;27.70;99.90
42663;DHT22;44330;51.360;6.686;2023-07-09T14:20:57;27.70;1.00
42663;DHT22;44330;51.360;6.686;2023-07-09T14:23:22;27.50;99.90
42663;DHT22;44330;51.360;6.686;2023-07-09T14:25:48;27.50;38.10
42663;DHT22;44330;51.360;6.686;2023-07-09T14:28:17;27.40;75.60
42663;DHT22;44330;51.360;6.686;2023-07-09T14:30:44;27.30;1.00
42663;DHT22;44330;51.360;6.686;2023-07-09T14:33:13;27.40;99.90
42663;DHT22;44330;51.360;6.686;2023-07-09T14:35:45;27.30;99.90
42663;DHT22;44330;51.360;6.686;2023-07-09T14:38:19;26.90;99.90
42663;DHT22;44330;51.360;6.686;2023-07-09T14:40:51;26.60;99.90
42663;DHT22;44330;51.360;6.686;2023-07-09T14:43:19;25.80;99.90
42663;DHT22;44330;51.360;6.686;2023-07-09T14:45:53;25.00;1.00
42663;DHT22;44330;51.360;6.686;2023-07-09T14:49:03;24.60;1.00
42663;DHT22;44330;51.360;6.686;2023-07-09T14:51:31;24.30;1.00
42663;DHT22;44330;51.360;6.686;2023-07-09T14:54:26;24.20;1.00
42663;DHT22;44330;51.360;6.686;2023-07-09T15:01:44;24.00;25.40
42663;DHT22;44330;51.360;6.686;2023-07-09T16:25:36;23.40;65.00
42663;DHT22;44330;51.360;6.686;2023-07-09T16:28:21;23.40;67.10
42663;DHT22;44330;51.360;6.686;2023-07-09T16:31:07;23.40;66.80
42663;DHT22;44330;51.360;6.686;2023-07-09T16:33:33;23.40;67.30
42663;DHT22;44330;51.360;6.686;2023-07-09T16:36:03;23.40;67.60
42663;DHT22;44330;51.360;6.686;2023-07-09T16:38:51;23.40;69.00
42663;DHT22;44330;51.360;6.686;2023-07-09T16:41:27;23.50;69.70
42663;DHT22;44330;51.360;6.686;2023-07-09T16:43:58;23.50;68.00
42663;DHT22;44330;51.360;6.686;2023-07-09T16:46:26;23.50;67.00
42663;DHT22;44330;51.360;6.686;2023-07-09T16:48:53;23.50;66.50
42663;DHT22;44330;51.360;6.686;2023-07-09T16:51:32;23.60;66.00
42663;DHT22;44330;51.360;6.686;2023-07-09T16:54:07;23.60;65.90
42663;DHT22;44330;51.360;6.686;2023-07-09T16:56:52;23.70;65.30
42663;DHT22;44330;51.360;6.686;2023-07-09T16:59:24;23.70;62.60
42663;DHT22;44330;51.360;6.686;2023-07-09T17:02:21;23.80;61.40
42663;DHT22;44330;51.360;6.686;2023-07-09T17:05:03;23.80;64.40
42663;DHT22;44330;51.360;6.686;2023-07-09T17:07:35;23.80;61.40
42663;DHT22;44330;51.360;6.686;2023-07-09T17:10:00;23.80;62.20
42663;DHT22;44330;51.360;6.686;2023-07-09T17:12:28;23.80;62.50
42663;DHT22;44330;51.360;6.686;2023-07-09T17:14:54;23.80;63.30
42663;DHT22;44330;51.360;6.686;2023-07-09T17:17:28;23.80;65.20
42663;DHT22;44330;51.360;6.686;2023-07-09T17:19:57;23.80;67.60
42663;DHT22;44330;51.360;6.686;2023-07-09T17:22:33;23.80;68.30
42663;DHT22;44330;51.360;6.686;2023-07-09T17:25:12;23.80;68.80
42663;DHT22;44330;51.360;6.686;2023-07-09T17:27:45;23.80;68.80
42663;DHT22;44330;51.360;6.686;2023-07-09T17:30:15;23.90;68.70
42663;DHT22;44330;51.360;6.686;2023-07-09T17:32:44;24.00;71.80
42663;DHT22;44330;51.360;6.686;2023-07-09T17:35:22;24.10;72.90
42663;DHT22;44330;51.360;6.686;2023-07-09T17:37:55;24.10;71.70
42663;DHT22;44330;51.360;6.686;2023-07-09T17:40:42;24.20;70.10
42663;DHT22;44330;51.360;6.686;2023-07-09T17:43:18;24.20;65.40
42663;DHT22;44330;51.360;6.686;2023-07-09T17:45:53;24.30;63.70
42663;DHT22;44330;51.360;6.686;2023-07-09T17:48:37;24.40;63.10
42663;DHT22;44330;51.360;6.686;2023-07-09T17:51:16;24.40;61.50
42663;DHT22;44330;51.360;6.686;2023-07-09T17:53:42;24.50;64.30
42663;DHT22;44330;51.360;6.686;2023-07-09T17:56:21;24.50;64.20